Time,TemperatureF,DewpointF,PressureIn,WindDirection,WindDirectionDegrees,WindSpeedMPH,WindSpeedGustMPH,Humidity,HourlyPrecipIn,Conditions,Clouds,dailyrainin,SoftwareType,DateUTC
2013-03-10 00:00:00,35.2,33.6,29.71,East,94,0.0,0.0,94,0.00,,,0.31,Wunderground v.1.15,2013-03-10 06:00:00,
2013-03-10 00:05:00,35.2,33.6,29.71,East,100,0.0,0.0,94,0.00,,,0.31,Wunderground v.1.15,2013-03-10 06:05:00,
2013-03-10 00:15:00,35.0,33.2,29.71,SE,145,0.0,0.0,93,0.00,,,0.00,Wunderground v.1.15,2013-03-10 06:15:00,
2013-03-10 00:25:00,34.9,33.1,29.71,ESE,110,0.0,0.0,93,0.00,,,0.00,Wunderground v.1.15,2013-03-10 06:25:00,
2013-03-10 00:30:00,34.9,33.1,29.70,East,84,0.0,0.0,93,0.00,,,0.00,Wunderground v.1.15,2013-03-10 06:30:00,
2013-03-10 00:35:00,34.7,32.9,29.70,WSW,250,0.0,0.0,93,0.00,,,0.00,Wunderground v.1.15,2013-03-10 06:35:00,
2013-03-10 00:40:00,34.7,32.9,29.70,SE,124,0.0,0.0,93,0.00,,,0.00,Wunderground v.1.15,2013-03-10 06:40:00,
2013-03-10 00:50:00,34.6,32.8,29.71,SE,127,0.0,0.0,93,0.00,,,0.00,Wunderground v.1.15,2013-03-10 06:50:00,
2013-03-10 00:55:00,34.4,32.9,29.71,SSE,167,0.0,0.0,94,0.00,,,0.00,Wunderground v.1.15,2013-03-10 06:55:00,
2013-03-10 01:00:00,34.4,32.9,29.72,WNW,300,0.0,0.0,94,0.00,,,0.00,Wunderground v.1.15,2013-03-10 07:00:00,
2013-03-10 01:05:00,34.3,32.8,29.72,West,265,0.0,0.0,94,0.00,,,0.00,Wunderground v.1.15,2013-03-10 07:05:00,
2013-03-10 01:15:00,34.3,32.8,29.72,ENE,65,0.0,0.0,94,0.00,,,0.00,Wunderground v.1.15,2013-03-10 07:15:00,
2013-03-10 01:20:00,34.1,32.6,29.72,WNW,285,0.0,0.0,94,0.00,,,0.00,Wunderground v.1.15,2013-03-10 07:20:00,
2013-03-10 01:25:00,34.1,32.6,29.72,West,262,0.0,0.0,94,0.00,,,0.00,Wunderground v.1.15,2013-03-10 07:25:00,
2013-03-10 01:30:00,34.1,32.6,29.71,ESE,104,0.0,0.0,94,0.00,,,0.00,Wunderground v.1.15,2013-03-10 07:30:00,
2013-03-10 01:35:00,34.1,32.6,29.71,ESE,118,0.0,0.0,94,0.00,,,0.00,Wunderground v.1.15,2013-03-10 07:35:00,
2013-03-10 01:45:00,34.0,32.5,29.70,ENE,76,0.0,0.0,94,0.00,,,0.00,Wunderground v.1.15,2013-03-10 07:45:00,
2013-03-10 01:50:00,34.0,32.5,29.70,WNW,297,0.0,0.0,94,0.00,,,0.00,Wunderground v.1.15,2013-03-10 07:50:00,
2013-03-10 03:00:00,34.0,32.5,29.72,SW,226,0.0,0.0,94,0.00,,,0.00,Wunderground v.1.15,2013-03-10 08:00:00,
2013-03-10 03:05:00,34.0,32.5,29.72,WSW,253,0.0,0.0,94,0.00,,,0.00,Wunderground v.1.15,2013-03-10 08:05:00,
2013-03-10 03:15:00,34.0,32.5,29.72,West,261,0.0,0.0,94,0.00,,,0.00,Wunderground v.1.15,2013-03-10 08:15:00,
2013-03-10 03:20:00,33.8,32.3,29.72,SE,124,0.0,0.0,94,0.00,,,0.00,Wunderground v.1.15,2013-03-10 08:20:00,
2013-03-10 03:30:00,33.8,32.3,29.73,ESE,108,0.0,0.0,94,0.00,,,0.00,Wunderground v.1.15,2013-03-10 08:30:00,
2013-03-10 03:35:00,33.8,32.3,29.73,ESE,108,0.0,0.0,94,0.00,,,0.00,Wunderground v.1.15,2013-03-10 08:35:00,
2013-03-10 03:45:00,33.8,32.3,29.73,WNW,283,0.0,0.0,94,0.00,,,0.00,Wunderground v.1.15,2013-03-10 08:45:00,
2013-03-10 03:50:00,33.8,32.3,29.73,East,81,0.0,0.0,94,0.00,,,0.00,Wunderground v.1.15,2013-03-10 08:50:00,
2013-03-10 03:55:00,33.8,32.3,29.73,NE,52,0.0,0.0,94,0.00,,,0.00,Wunderground v.1.15,2013-03-10 08:55:00,
2013-03-10 04:05:00,33.7,32.2,29.73,NNE,30,0.0,0.0,94,0.00,,,0.01,Wunderground v.1.15,2013-03-10 09:05:00,
2013-03-10 04:15:00,33.7,32.2,29.75,WSW,250,0.0,0.0,94,0.00,,,0.01,Wunderground v.1.15,2013-03-10 09:15:00,
2013-03-10 04:25:00,33.7,32.2,29.75,North,359,0.0,0.0,94,0.00,,,0.01,Wunderground v.1.15,2013-03-10 09:25:00,
2013-03-10 04:30:00,33.7,32.2,29.75,SW,223,0.0,0.0,94,0.00,,,0.01,Wunderground v.1.15,2013-03-10 09:30:00,
2013-03-10 04:35:00,33.7,32.2,29.75,West,278,0.0,0.0,94,0.00,,,0.01,Wunderground v.1.15,2013-03-10 09:35:00,
2013-03-10 04:45:00,33.7,32.2,29.73,SSW,205,0.0,0.0,94,0.00,,,0.01,Wunderground v.1.15,2013-03-10 09:45:00,
2013-03-10 04:50:00,33.7,32.2,29.73,SW,236,0.0,0.0,94,0.00,,,0.01,Wunderground v.1.15,2013-03-10 09:50:00,
2013-03-10 04:55:00,33.7,32.2,29.73,SW,236,0.0,0.0,94,0.00,,,0.01,Wunderground v.1.15,2013-03-10 09:55:00,
2013-03-10 05:00:00,33.7,32.2,29.73,WSW,253,0.0,0.0,94,0.00,,,0.01,Wunderground v.1.15,2013-03-10 10:00:00,
2013-03-10 05:05:00,33.5,32.0,29.73,SW,224,0.0,0.0,94,0.00,,,0.01,Wunderground v.1.15,2013-03-10 10:05:00,
2013-03-10 05:15:00,33.5,31.7,29.72,WSW,246,0.0,0.0,93,0.00,,,0.01,Wunderground v.1.15,2013-03-10 10:15:00,
2013-03-10 05:25:00,33.5,31.7,29.72,WSW,253,0.0,0.0,93,0.00,,,0.01,Wunderground v.1.15,2013-03-10 10:25:00,
2013-03-10 05:30:00,33.4,31.6,29.72,SSW,207,0.0,0.0,93,0.00,,,0.01,Wunderground v.1.15,2013-03-10 10:30:00,
2013-03-10 05:40:00,33.4,31.6,29.72,SSW,198,0.0,0.0,93,0.00,,,0.01,Wunderground v.1.15,2013-03-10 10:40:00,
2013-03-10 05:50:00,33.4,31.6,29.75,WSW,237,0.0,0.0,93,0.00,,,0.01,Wunderground v.1.15,2013-03-10 10:50:00,
2013-03-10 05:55:00,33.4,31.6,29.75,WSW,239,0.0,0.0,93,0.00,,,0.01,Wunderground v.1.15,2013-03-10 10:55:00,
2013-03-10 06:00:00,33.4,31.6,29.77,WSW,240,0.0,0.0,93,0.00,,,0.01,Wunderground v.1.15,2013-03-10 11:00:00,
2013-03-10 06:05:00,33.4,31.6,29.77,NW,319,0.0,0.0,93,0.00,,,0.01,Wunderground v.1.15,2013-03-10 11:05:00,
2013-03-10 06:15:00,33.4,31.6,29.77,WSW,253,0.0,0.0,93,0.00,,,0.01,Wunderground v.1.15,2013-03-10 11:15:00,
2013-03-10 06:20:00,33.4,31.6,29.77,WSW,254,0.0,0.0,93,0.00,,,0.01,Wunderground v.1.15,2013-03-10 11:20:00,
2013-03-10 06:30:00,33.2,31.4,29.76,WSW,253,0.0,0.0,93,0.00,,,0.01,Wunderground v.1.15,2013-03-10 11:30:00,
2013-03-10 06:40:00,33.2,31.4,29.76,SW,214,0.0,0.0,93,0.00,,,0.01,Wunderground v.1.15,2013-03-10 11:40:00,
2013-03-10 06:45:00,33.2,31.4,29.78,SW,233,0.0,0.0,93,0.00,,,0.01,Wunderground v.1.15,2013-03-10 11:45:00,
2013-03-10 06:50:00,33.2,31.4,29.78,SW,225,0.0,0.0,93,0.00,,,0.01,Wunderground v.1.15,2013-03-10 11:50:00,
2013-03-10 06:55:00,33.2,31.1,29.78,SSW,200,0.0,0.0,92,0.00,,,0.01,Wunderground v.1.15,2013-03-10 11:55:00,
2013-03-10 07:05:00,33.2,31.1,29.80,West,264,0.0,0.0,92,0.00,,,0.01,Wunderground v.1.15,2013-03-10 12:05:00,
2013-03-10 07:15:00,33.2,31.1,29.79,SW,229,0.0,0.0,92,0.00,,,0.01,Wunderground v.1.15,2013-03-10 12:15:00,
2013-03-10 07:25:00,33.2,31.1,29.79,WSW,243,0.0,0.0,92,0.00,,,0.01,Wunderground v.1.15,2013-03-10 12:25:00,
2013-03-10 07:30:00,33.1,31.0,29.77,WNW,289,0.0,0.0,92,0.00,,,0.01,Wunderground v.1.15,2013-03-10 12:30:00,
2013-03-10 07:35:00,33.1,31.0,29.77,SW,226,0.0,0.0,92,0.00,,,0.01,Wunderground v.1.15,2013-03-10 12:35:00,
2013-03-10 07:40:00,33.1,30.8,29.77,WSW,246,0.0,0.0,91,0.00,,,0.01,Wunderground v.1.15,2013-03-10 12:40:00,
2013-03-10 07:45:00,33.1,30.8,29.80,West,278,0.0,0.0,91,0.00,,,0.01,Wunderground v.1.15,2013-03-10 12:45:00,
2013-03-10 07:50:00,33.1,30.8,29.80,West,266,0.0,0.0,91,0.00,,,0.01,Wunderground v.1.15,2013-03-10 12:50:00,
2013-03-10 07:55:00,33.1,30.8,29.80,West,266,0.0,0.0,91,0.00,,,0.01,Wunderground v.1.15,2013-03-10 12:55:00,
2013-03-10 08:05:00,33.2,30.9,29.78,WSW,248,0.0,0.0,91,0.00,,,0.01,Wunderground v.1.15,2013-03-10 13:05:00,
2013-03-10 08:15:00,33.2,30.9,29.80,SW,217,0.0,0.0,91,0.00,,,0.01,Wunderground v.1.15,2013-03-10 13:15:00,
2013-03-10 08:20:00,33.2,30.6,29.80,North,0,0.0,0.0,90,0.00,,,0.01,Wunderground v.1.15,2013-03-10 13:20:00,
2013-03-10 08:25:00,33.2,30.6,29.80,SW,226,0.0,0.0,90,0.00,,,0.01,Wunderground v.1.15,2013-03-10 13:25:00,
2013-03-10 08:35:00,33.4,30.8,29.84,West,269,0.0,0.0,90,0.00,,,0.01,Wunderground v.1.15,2013-03-10 13:35:00,
2013-03-10 08:40:00,33.4,30.8,29.84,SW,224,0.0,0.0,90,0.00,,,0.01,Wunderground v.1.15,2013-03-10 13:40:00,
2013-03-10 08:45:00,33.5,30.9,29.85,SSW,198,0.0,0.0,90,0.00,,,0.01,Wunderground v.1.15,2013-03-10 13:45:00,
2013-03-10 08:50:00,33.5,30.9,29.85,SSW,205,0.0,0.0,90,0.00,,,0.01,Wunderground v.1.15,2013-03-10 13:50:00,
2013-03-10 08:55:00,33.5,30.6,29.85,WSW,255,0.0,0.0,89,0.00,,,0.01,Wunderground v.1.15,2013-03-10 13:55:00,
2013-03-10 09:05:00,33.7,30.8,29.86,WNW,297,0.0,0.0,89,0.00,,,0.01,Wunderground v.1.15,2013-03-10 14:05:00,
2013-03-10 09:15:00,33.7,30.5,29.87,ESE,105,0.0,0.0,88,0.00,,,0.01,Wunderground v.1.15,2013-03-10 14:15:00,
2013-03-10 09:25:00,33.7,30.5,29.87,SE,124,0.0,0.0,88,0.00,,,0.01,Wunderground v.1.15,2013-03-10 14:25:00,
2013-03-10 09:30:00,33.8,30.6,29.88,WSW,240,0.0,0.0,88,0.00,,,0.01,Wunderground v.1.15,2013-03-10 14:30:00,
2013-03-10 09:35:00,33.8,30.6,29.88,WSW,245,0.0,0.0,88,0.00,,,0.01,Wunderground v.1.15,2013-03-10 14:35:00,
2013-03-10 09:40:00,33.8,30.6,29.88,SW,220,0.0,0.0,88,0.00,,,0.01,Wunderground v.1.15,2013-03-10 14:40:00,
2013-03-10 09:45:00,33.8,30.6,29.86,SW,220,0.0,0.0,88,0.00,,,0.01,Wunderground v.1.15,2013-03-10 14:45:00,
2013-03-10 09:50:00,34.0,30.8,29.86,SW,224,0.0,0.0,88,0.00,,,0.01,Wunderground v.1.15,2013-03-10 14:50:00,
2013-03-10 10:00:00,34.0,30.8,29.84,East,97,0.0,0.0,88,0.00,,,0.01,Wunderground v.1.15,2013-03-10 15:00:00,
2013-03-10 10:05:00,34.1,30.9,29.84,WNW,288,0.0,0.0,88,0.00,,,0.01,Wunderground v.1.15,2013-03-10 15:05:00,
2013-03-10 10:15:00,34.1,30.6,29.88,SW,226,0.0,0.0,87,0.00,,,0.01,Wunderground v.1.15,2013-03-10 15:15:00,
2013-03-10 10:20:00,34.1,30.6,29.88,WSW,251,0.0,0.0,87,0.00,,,0.01,Wunderground v.1.15,2013-03-10 15:20:00,
2013-03-10 10:25:00,34.1,30.6,29.88,WSW,240,0.0,0.0,87,0.00,,,0.01,Wunderground v.1.15,2013-03-10 15:25:00,
2013-03-10 10:35:00,34.3,30.8,29.87,SW,221,0.0,0.0,87,0.00,,,0.01,Wunderground v.1.15,2013-03-10 15:35:00,
2013-03-10 10:40:00,34.3,30.8,29.87,SW,231,0.0,0.0,87,0.00,,,0.01,Wunderground v.1.15,2013-03-10 15:40:00,
2013-03-10 10:45:00,34.3,30.5,29.85,WSW,243,0.0,0.0,86,0.00,,,0.01,Wunderground v.1.15,2013-03-10 15:45:00,
2013-03-10 10:50:00,34.3,30.5,29.85,East,79,0.0,0.0,86,0.00,,,0.01,Wunderground v.1.15,2013-03-10 15:50:00,
2013-03-10 11:00:00,34.4,30.6,29.88,SW,214,0.0,0.0,86,0.00,,,0.01,Wunderground v.1.15,2013-03-10 16:00:00,
2013-03-10 11:05:00,34.4,30.6,29.88,SSW,192,0.0,0.0,86,0.00,,,0.01,Wunderground v.1.15,2013-03-10 16:05:00,
2013-03-10 11:15:00,34.4,30.6,29.88,West,266,0.0,0.0,86,0.00,,,0.01,Wunderground v.1.15,2013-03-10 16:15:00,
2013-03-10 11:25:00,34.4,30.4,29.88,NW,325,0.0,0.0,85,0.00,,,0.01,Wunderground v.1.15,2013-03-10 16:25:00,
2013-03-10 11:30:00,34.4,30.4,29.88,SSW,209,0.0,0.0,85,0.00,,,0.01,Wunderground v.1.15,2013-03-10 16:30:00,
2013-03-10 11:35:00,34.4,30.4,29.88,WSW,238,0.0,0.0,85,0.00,,,0.01,Wunderground v.1.15,2013-03-10 16:35:00,
2013-03-10 11:45:00,34.4,30.4,29.87,WNW,294,0.0,0.0,85,0.00,,,0.01,Wunderground v.1.15,2013-03-10 16:45:00,
2013-03-10 11:50:00,34.6,30.6,29.87,SW,233,0.0,0.0,85,0.00,,,0.01,Wunderground v.1.15,2013-03-10 16:50:00,
2013-03-10 11:55:00,34.4,30.4,29.87,SSW,205,0.0,0.0,85,0.00,,,0.01,Wunderground v.1.15,2013-03-10 16:55:00,
2013-03-10 12:05:00,34.4,30.1,29.86,WSW,243,0.0,0.0,84,0.00,,,0.01,Wunderground v.1.15,2013-03-10 17:05:00,
2013-03-10 12:15:00,34.6,30.3,29.86,WSW,253,0.0,0.0,84,0.00,,,0.01,Wunderground v.1.15,2013-03-10 17:15:00,
2013-03-10 12:20:00,34.6,30.3,29.86,WSW,243,0.0,0.0,84,0.00,,,0.01,Wunderground v.1.15,2013-03-10 17:20:00,
2013-03-10 12:30:00,34.4,29.8,29.88,WSW,250,0.0,0.0,83,0.00,,,0.01,Wunderground v.1.15,2013-03-10 17:30:00,
2013-03-10 12:35:00,34.3,29.7,29.88,South,182,0.0,0.0,83,0.00,,,0.01,Wunderground v.1.15,2013-03-10 17:35:00,
2013-03-10 12:40:00,34.3,29.7,29.88,SSW,213,0.0,0.0,83,0.00,,,0.01,Wunderground v.1.15,2013-03-10 17:40:00,
2013-03-10 12:45:00,34.3,29.7,29.88,West,276,0.0,0.0,83,0.00,,,0.01,Wunderground v.1.15,2013-03-10 17:45:00,
2013-03-10 12:50:00,34.3,29.7,29.88,SW,235,0.0,0.0,83,0.00,,,0.01,Wunderground v.1.15,2013-03-10 17:50:00,
2013-03-10 13:00:00,34.3,29.7,29.87,WSW,251,0.0,0.0,83,0.00,,,0.01,Wunderground v.1.15,2013-03-10 18:00:00,
2013-03-10 13:10:00,34.1,29.5,29.87,West,266,0.0,0.0,83,0.00,,,0.01,Wunderground v.1.15,2013-03-10 18:10:00,
2013-03-10 13:15:00,34.1,29.5,29.86,SSE,157,0.0,0.0,83,0.00,,,0.01,Wunderground v.1.15,2013-03-10 18:15:00,
2013-03-10 13:20:00,34.1,29.2,29.86,WSW,249,0.0,0.0,82,0.00,,,0.01,Wunderground v.1.15,2013-03-10 18:20:00,
2013-03-10 13:25:00,34.1,29.2,29.86,WSW,239,0.0,0.0,82,0.00,,,0.01,Wunderground v.1.15,2013-03-10 18:25:00,
2013-03-10 13:35:00,34.1,29.2,29.85,NNW,347,0.0,0.0,82,0.00,,,0.01,Wunderground v.1.15,2013-03-10 18:35:00,
2013-03-10 13:40:00,34.1,29.2,29.85,SW,223,0.0,0.0,82,0.00,,,0.01,Wunderground v.1.15,2013-03-10 18:40:00,
2013-03-10 13:45:00,34.1,29.2,29.85,SW,215,0.0,0.0,82,0.00,,,0.01,Wunderground v.1.15,2013-03-10 18:45:00,
2013-03-10 13:50:00,34.1,29.2,29.85,WSW,245,0.0,0.0,82,0.00,,,0.01,Wunderground v.1.15,2013-03-10 18:50:00,
2013-03-10 14:00:00,34.1,29.2,29.86,SW,219,0.0,0.0,82,0.00,,,0.01,Wunderground v.1.15,2013-03-10 19:00:00,
2013-03-10 14:05:00,34.1,29.2,29.86,WSW,248,0.0,0.0,82,0.00,,,0.01,Wunderground v.1.15,2013-03-10 19:05:00,
2013-03-10 14:15:00,34.1,28.9,29.85,South,169,0.0,0.0,81,0.00,,,0.01,Wunderground v.1.15,2013-03-10 19:15:00,
2013-03-10 14:20:00,34.0,28.8,29.85,WSW,241,0.0,0.0,81,0.00,,,0.01,Wunderground v.1.15,2013-03-10 19:20:00,
2013-03-10 14:25:00,34.0,28.8,29.85,SW,235,0.0,0.0,81,0.00,,,0.01,Wunderground v.1.15,2013-03-10 19:25:00,
2013-03-10 14:30:00,34.0,28.5,29.85,WSW,238,0.0,0.0,80,0.00,,,0.01,Wunderground v.1.15,2013-03-10 19:30:00,
2013-03-10 14:35:00,34.0,28.5,29.85,SW,226,0.0,0.0,80,0.00,,,0.01,Wunderground v.1.15,2013-03-10 19:35:00,
2013-03-10 14:45:00,34.0,28.5,29.85,WSW,238,0.0,0.0,80,0.00,,,0.01,Wunderground v.1.15,2013-03-10 19:45:00,
2013-03-10 14:50:00,34.0,28.2,29.85,NNE,28,0.0,0.0,79,0.00,,,0.01,Wunderground v.1.15,2013-03-10 19:50:00,
2013-03-10 14:55:00,34.1,28.3,29.85,NNE,25,0.0,0.0,79,0.00,,,0.01,Wunderground v.1.15,2013-03-10 19:55:00,
2013-03-10 15:05:00,34.0,28.2,29.85,SSW,208,0.0,0.0,79,0.00,,,0.01,Wunderground v.1.15,2013-03-10 20:05:00,
2013-03-10 15:15:00,34.0,28.2,29.85,SW,216,0.0,0.0,79,0.00,,,0.01,Wunderground v.1.15,2013-03-10 20:15:00,
2013-03-10 15:20:00,34.0,28.2,29.85,South,191,0.0,0.0,79,0.00,,,0.01,Wunderground v.1.15,2013-03-10 20:20:00,
2013-03-10 15:25:00,34.0,28.2,29.85,NNE,33,0.0,0.0,79,0.00,,,0.01,Wunderground v.1.15,2013-03-10 20:25:00,
2013-03-10 15:30:00,34.0,27.9,29.85,WSW,251,0.0,0.0,78,0.00,,,0.01,Wunderground v.1.15,2013-03-10 20:30:00,
2013-03-10 15:35:00,34.0,27.9,29.85,WSW,252,0.0,0.0,78,0.00,,,0.01,Wunderground v.1.15,2013-03-10 20:35:00,
2013-03-10 15:40:00,33.8,27.7,29.85,SW,233,0.0,0.0,78,0.00,,,0.01,Wunderground v.1.15,2013-03-10 20:40:00,
2013-03-10 15:50:00,33.7,27.6,29.84,WNW,292,0.0,0.0,78,0.00,,,0.01,Wunderground v.1.15,2013-03-10 20:50:00,
2013-03-10 15:55:00,33.7,27.6,29.84,WNW,282,0.0,0.0,78,0.00,,,0.01,Wunderground v.1.15,2013-03-10 20:55:00,
2013-03-10 16:00:00,33.7,27.6,29.83,SW,227,0.0,0.0,78,0.00,,,0.01,Wunderground v.1.15,2013-03-10 21:00:00,
2013-03-10 16:05:00,33.7,27.3,29.83,WNW,286,0.0,0.0,77,0.00,,,0.01,Wunderground v.1.15,2013-03-10 21:05:00,
2013-03-10 16:15:00,33.5,27.4,29.83,SW,219,0.0,0.0,78,0.00,,,0.01,Wunderground v.1.15,2013-03-10 21:15:00,
2013-03-10 16:20:00,33.5,27.4,29.83,West,265,0.0,0.0,78,0.00,,,0.01,Wunderground v.1.15,2013-03-10 21:20:00,
2013-03-10 16:25:00,33.4,27.3,29.83,SSE,167,0.0,0.0,78,0.00,,,0.01,Wunderground v.1.15,2013-03-10 21:25:00,
2013-03-10 16:35:00,33.2,27.1,29.83,WSW,249,0.0,0.0,78,0.00,,,0.01,Wunderground v.1.15,2013-03-10 21:35:00,
2013-03-10 16:40:00,33.2,27.1,29.83,WSW,240,0.0,0.0,78,0.00,,,0.01,Wunderground v.1.15,2013-03-10 21:40:00,
2013-03-10 16:45:00,33.2,27.1,29.82,WSW,254,0.0,0.0,78,0.00,,,0.01,Wunderground v.1.15,2013-03-10 21:45:00,
2013-03-10 16:55:00,33.1,27.0,29.82,SSW,195,0.0,0.0,78,0.00,,,0.01,Wunderground v.1.15,2013-03-10 21:55:00,
2013-03-10 17:00:00,33.1,27.0,29.82,SW,232,0.0,0.0,78,0.00,,,0.01,Wunderground v.1.15,2013-03-10 22:00:00,
2013-03-10 17:05:00,32.9,26.8,29.82,WSW,242,0.0,0.0,78,0.00,,,0.01,Wunderground v.1.15,2013-03-10 22:05:00,
2013-03-10 17:15:00,32.9,26.8,29.83,SSE,164,0.0,0.0,78,0.00,,,0.01,Wunderground v.1.15,2013-03-10 22:15:00,
2013-03-10 17:20:00,32.8,26.7,29.83,SW,234,0.0,0.0,78,0.00,,,0.01,Wunderground v.1.15,2013-03-10 22:20:00,
2013-03-10 17:25:00,32.8,26.7,29.83,SW,229,0.0,0.0,78,0.00,,,0.01,Wunderground v.1.15,2013-03-10 22:25:00,
2013-03-10 17:30:00,32.8,26.7,29.82,SW,219,0.0,0.0,78,0.00,,,0.01,Wunderground v.1.15,2013-03-10 22:30:00,
2013-03-10 17:35:00,32.7,26.6,29.82,WSW,246,0.0,0.0,78,0.00,,,0.01,Wunderground v.1.15,2013-03-10 22:35:00,
2013-03-10 17:40:00,32.7,26.6,29.82,WNW,283,0.0,0.0,78,0.00,,,0.01,Wunderground v.1.15,2013-03-10 22:40:00,
2013-03-10 17:45:00,32.7,26.6,29.82,NNW,334,0.0,0.0,78,0.00,,,0.01,Wunderground v.1.15,2013-03-10 22:45:00,
2013-03-10 17:55:00,32.7,26.6,29.82,WSW,243,0.0,0.0,78,0.00,,,0.01,Wunderground v.1.15,2013-03-10 22:55:00,
2013-03-10 18:00:00,32.5,26.4,29.82,SSW,205,0.0,0.0,78,0.00,,,0.01,Wunderground v.1.15,2013-03-10 23:00:00,
2013-03-10 18:05:00,32.5,26.4,29.82,SW,231,0.0,0.0,78,0.00,,,0.01,Wunderground v.1.15,2013-03-10 23:05:00,
2013-03-10 18:15:00,32.4,26.3,29.82,WNW,302,0.0,0.0,78,0.00,,,0.01,Wunderground v.1.15,2013-03-10 23:15:00,
2013-03-10 18:25:00,32.4,26.3,29.82,WSW,243,0.0,0.0,78,0.00,,,0.01,Wunderground v.1.15,2013-03-10 23:25:00,
2013-03-10 18:30:00,32.4,26.6,29.82,SW,220,0.0,0.0,79,0.00,,,0.01,Wunderground v.1.15,2013-03-10 23:30:00,
2013-03-10 18:35:00,32.2,26.4,29.82,SSW,198,0.0,0.0,79,0.00,,,0.01,Wunderground v.1.15,2013-03-10 23:35:00,
2013-03-10 18:40:00,32.2,26.4,29.82,SW,231,0.0,0.0,79,0.00,,,0.01,Wunderground v.1.15,2013-03-10 23:40:00,
2013-03-10 18:50:00,32.1,26.3,29.82,East,84,0.0,0.0,79,0.00,,,0.01,Wunderground v.1.15,2013-03-10 23:50:00,
2013-03-10 18:55:00,32.1,26.3,29.82,SW,224,0.0,0.0,79,0.00,,,0.01,Wunderground v.1.15,2013-03-10 23:55:00,
2013-03-10 19:00:00,32.1,26.3,29.82,SW,233,0.0,0.0,79,0.00,,,0.01,Wunderground v.1.15,2013-03-11 00:00:00,
2013-03-10 19:05:00,32.1,26.3,29.82,NW,326,0.0,0.0,79,0.00,,,0.01,Wunderground v.1.15,2013-03-11 00:05:00,
2013-03-10 19:15:00,31.9,26.1,29.82,NE,40,0.0,0.0,79,0.00,,,0.01,Wunderground v.1.15,2013-03-11 00:15:00,
2013-03-10 19:20:00,31.9,26.1,29.82,SW,229,0.0,0.0,79,0.00,,,0.01,Wunderground v.1.15,2013-03-11 00:20:00,
2013-03-10 19:25:00,31.9,26.1,29.82,WSW,252,0.0,0.0,79,0.00,,,0.01,Wunderground v.1.15,2013-03-11 00:25:00,
2013-03-10 19:35:00,31.9,26.1,29.83,West,265,0.0,0.0,79,0.00,,,0.01,Wunderground v.1.15,2013-03-11 00:35:00,
2013-03-10 19:40:00,31.8,26.0,29.83,West,262,0.0,0.0,79,0.00,,,0.01,Wunderground v.1.15,2013-03-11 00:40:00,
2013-03-10 19:45:00,31.8,26.0,29.83,NW,305,0.0,0.0,79,0.00,,,0.01,Wunderground v.1.15,2013-03-11 00:45:00,
2013-03-10 19:55:00,31.8,26.0,29.83,SE,125,0.0,0.0,79,0.00,,,0.01,Wunderground v.1.15,2013-03-11 00:55:00,
2013-03-10 20:00:00,31.6,25.5,29.84,WNW,302,0.0,0.0,78,0.00,,,0.01,Wunderground v.1.15,2013-03-11 01:00:00,
2013-03-10 20:05:00,31.6,25.5,29.84,South,181,0.0,0.0,78,0.00,,,0.01,Wunderground v.1.15,2013-03-11 01:05:00,
2013-03-10 20:15:00,31.5,25.4,29.84,WSW,254,0.0,0.0,78,0.00,,,0.01,Wunderground v.1.15,2013-03-11 01:15:00,
2013-03-10 20:20:00,31.5,25.4,29.84,SSE,153,0.0,0.0,78,0.00,,,0.01,Wunderground v.1.15,2013-03-11 01:20:00,
2013-03-10 20:25:00,31.3,25.2,29.84,SW,233,0.0,0.0,78,0.00,,,0.01,Wunderground v.1.15,2013-03-11 01:25:00,
2013-03-10 20:30:00,31.3,25.2,29.84,SW,231,0.0,0.0,78,0.00,,,0.01,Wunderground v.1.15,2013-03-11 01:30:00,
2013-03-10 20:35:00,31.3,25.2,29.84,WNW,301,0.0,0.0,78,0.00,,,0.01,Wunderground v.1.15,2013-03-11 01:35:00,
2013-03-10 20:45:00,31.2,25.1,29.84,East,79,0.0,0.0,78,0.00,,,0.01,Wunderground v.1.15,2013-03-11 01:45:00,
2013-03-10 20:50:00,31.2,25.1,29.84,SSW,201,0.0,0.0,78,0.00,,,0.01,Wunderground v.1.15,2013-03-11 01:50:00,
2013-03-10 20:55:00,31.0,24.9,29.84,West,272,0.0,0.0,78,0.00,,,0.01,Wunderground v.1.15,2013-03-11 01:55:00,
2013-03-10 21:00:00,31.0,24.9,29.84,WSW,249,0.0,0.0,78,0.00,,,0.01,Wunderground v.1.15,2013-03-11 02:00:00,
2013-03-10 21:06:00,31.0,24.9,29.84,SW,224,0.0,0.0,78,0.00,,,0.01,Wunderground v.1.15,2013-03-11 02:06:00,
2013-03-10 21:15:00,31.0,24.9,29.85,WSW,251,0.0,0.0,78,0.00,,,0.01,Wunderground v.1.15,2013-03-11 02:15:00,
2013-03-10 21:20:00,31.0,24.9,29.85,SSW,195,0.0,0.0,78,0.00,,,0.01,Wunderground v.1.15,2013-03-11 02:20:00,
2013-03-10 21:30:00,30.9,24.8,29.85,NE,53,0.0,0.0,78,0.00,,,0.01,Wunderground v.1.15,2013-03-11 02:30:00,
2013-03-10 21:35:00,30.9,24.8,29.85,SW,226,0.0,0.0,78,0.00,,,0.01,Wunderground v.1.15,2013-03-11 02:35:00,
2013-03-10 21:40:00,30.9,24.8,29.85,SW,216,0.0,0.0,78,0.00,,,0.01,Wunderground v.1.15,2013-03-11 02:40:00,
2013-03-10 21:45:00,30.9,24.8,29.85,WSW,255,0.0,0.0,78,0.00,,,0.01,Wunderground v.1.15,2013-03-11 02:45:00,
2013-03-10 21:50:00,30.9,24.8,29.85,SW,229,0.0,0.0,78,0.00,,,0.01,Wunderground v.1.15,2013-03-11 02:50:00,
2013-03-10 22:00:00,30.7,24.7,29.84,SW,221,0.0,0.0,78,0.00,,,0.01,Wunderground v.1.15,2013-03-11 03:00:00,
2013-03-10 22:05:00,30.7,24.7,29.84,SW,224,0.0,0.0,78,0.00,,,0.01,Wunderground v.1.15,2013-03-11 03:05:00,
2013-03-10 22:15:00,30.7,24.7,29.84,WSW,243,0.0,0.0,78,0.00,,,0.01,Wunderground v.1.15,2013-03-11 03:15:00,
2013-03-10 22:25:00,30.7,24.7,29.84,SW,220,0.0,0.0,78,0.00,,,0.01,Wunderground v.1.15,2013-03-11 03:25:00,
2013-03-10 22:30:00,30.7,24.7,29.83,SW,217,0.0,0.0,78,0.00,,,0.01,Wunderground v.1.15,2013-03-11 03:30:00,
2013-03-10 22:35:00,30.7,24.7,29.83,SSW,207,0.0,0.0,78,0.00,,,0.01,Wunderground v.1.15,2013-03-11 03:35:00,
2013-03-10 22:50:00,30.6,24.9,29.82,NNW,332,0.0,0.0,79,0.00,,,0.01,Wunderground v.1.15,2013-03-11 03:50:00,
2013-03-10 23:00:00,30.6,24.6,29.82,West,276,0.0,0.0,78,0.00,,,0.01,Wunderground v.1.15,2013-03-11 04:00:00,
2013-03-10 23:05:00,30.4,24.4,29.82,SW,232,0.0,0.0,78,0.00,,,0.01,Wunderground v.1.15,2013-03-11 04:05:00,